KRAL/RAL METAR and TAF weather

Enter ICAO airport designator
Station Type Date Time Source
KRAL METAR 2019/09/21 04:53 UTC NOAA

KRAL 210453Z AUTO 27003KT 10SM CLR 19/13 A2988 RMK AO2 SLP104 T01940133


Station Type Date Time Source
KRAL Decoded METAR 2019/09/21 04:53 UTC NOAA

RIVERSIDE MUNICIPAL AIRPORT , CA, United States (KRAL) 33-57N 117-27W 252M
Sep 21, 2019 - 12:53 AM EDT / 2019.09.21 0453 UTC
Wind: from the W (270 degrees) at 3 MPH (3 KT):0
Visibility: 10 mile(s):0
Sky conditions: clear
Temperature: 66.9 F (19.4 C)
Dew Point: 55.9 F (13.3 C)
Relative Humidity: 67%
Pressure (altimeter): 29.88 in. Hg (1011 hPa)
ob: KRAL 210453Z AUTO 27003KT 10SM CLR 19/13 A2988 RMK AO2 SLP104 T01940133
cycle: 5

Station Type Date Time Source
KRAL TAF UTC NOAA

Error!

Example: see airport list